sensor_id;sensor_type;location;lat;lon;timestamp;pressure;altitude;pressure_sealevel;temperature;humidity
48778;BME280;34578;0.000;0.000;2023-07-16T00:03:54;96682.41;;;22.62;59.99
48778;BME280;34578;0.000;0.000;2023-07-16T00:08:55;96681.69;;;22.55;60.29
48778;BME280;34578;0.000;0.000;2023-07-16T00:13:55;96695.44;;;22.45;60.25
48778;BME280;34578;0.000;0.000;2023-07-16T00:18:55;96678.53;;;22.38;60.12
48778;BME280;34578;0.000;0.000;2023-07-16T00:23:56;96692.22;;;22.34;60.00
48778;BME280;34578;0.000;0.000;2023-07-16T00:28:56;96688.00;;;22.32;59.75
48778;BME280;34578;0.000;0.000;2023-07-16T00:33:56;96670.09;;;22.33;60.17
48778;BME280;34578;0.000;0.000;2023-07-16T00:38:57;96676.56;;;22.55;60.57
48778;BME280;34578;0.000;0.000;2023-07-16T00:43:57;96672.19;;;22.63;59.67
48778;BME280;34578;0.000;0.000;2023-07-16T00:48:58;96691.94;;;22.52;60.20
48778;BME280;34578;0.000;0.000;2023-07-16T00:53:58;96703.97;;;22.44;60.29
48778;BME280;34578;0.000;0.000;2023-07-16T00:58:59;96725.25;;;22.40;60.11
48778;BME280;34578;0.000;0.000;2023-07-16T01:03:59;96699.81;;;22.36;59.86
48778;BME280;34578;0.000;0.000;2023-07-16T01:09:20;96682.03;;;22.31;59.68
48778;BME280;34578;0.000;0.000;2023-07-16T01:14:21;96679.34;;;22.43;61.77
48778;BME280;34578;0.000;0.000;2023-07-16T01:19:21;96707.13;;;22.58;61.82
48778;BME280;34578;0.000;0.000;2023-07-16T01:29:51;96707.41;;;22.43;60.62
48778;BME280;34578;0.000;0.000;2023-07-16T01:34:54;96723.59;;;22.38;60.26
48778;BME280;34578;0.000;0.000;2023-07-16T01:39:55;96724.53;;;22.32;60.22
48778;BME280;34578;0.000;0.000;2023-07-16T01:44:55;96739.84;;;22.32;59.81
48778;BME280;34578;0.000;0.000;2023-07-16T01:49:58;96749.22;;;22.30;59.56
48778;BME280;34578;0.000;0.000;2023-07-16T01:54:58;96768.56;;;22.48;61.40
48778;BME280;34578;0.000;0.000;2023-07-16T01:59:59;96768.31;;;22.63;60.69
48778;BME280;34578;0.000;0.000;2023-07-16T02:04:59;96736.19;;;22.51;60.83
48778;BME280;34578;0.000;0.000;2023-07-16T02:09:59;96715.91;;;22.39;60.37
48778;BME280;34578;0.000;0.000;2023-07-16T02:15:00;96741.50;;;22.36;60.27
48778;BME280;34578;0.000;0.000;2023-07-16T02:20:00;96743.22;;;22.34;60.19
48778;BME280;34578;0.000;0.000;2023-07-16T02:25:01;96746.72;;;22.27;59.66
48778;BME280;34578;0.000;0.000;2023-07-16T02:30:04;96750.97;;;22.28;59.55
48778;BME280;34578;0.000;0.000;2023-07-16T02:35:06;96743.84;;;22.51;59.94
48778;BME280;34578;0.000;0.000;2023-07-16T02:40:07;96753.88;;;22.62;59.57
48778;BME280;34578;0.000;0.000;2023-07-16T02:45:08;96758.28;;;22.52;59.91
48778;BME280;34578;0.000;0.000;2023-07-16T02:50:12;96774.56;;;22.44;59.83
48778;BME280;34578;0.000;0.000;2023-07-16T02:55:12;96774.63;;;22.41;59.77
48778;BME280;34578;0.000;0.000;2023-07-16T03:00:13;96772.09;;;22.36;59.58
48778;BME280;34578;0.000;0.000;2023-07-16T03:05:14;96734.78;;;22.29;59.34
48778;BME280;34578;0.000;0.000;2023-07-16T03:10:14;96766.19;;;22.34;59.70
48778;BME280;34578;0.000;0.000;2023-07-16T03:15:14;96763.38;;;22.52;59.34
48778;BME280;34578;0.000;0.000;2023-07-16T03:20:15;96753.06;;;22.58;59.16
48778;BME280;34578;0.000;0.000;2023-07-16T03:25:15;96739.63;;;22.47;59.51
48778;BME280;34578;0.000;0.000;2023-07-16T03:30:16;96749.91;;;22.44;59.52
48778;BME280;34578;0.000;0.000;2023-07-16T03:35:16;96750.78;;;22.42;59.54
48778;BME280;34578;0.000;0.000;2023-07-16T03:40:23;96763.53;;;22.40;59.23
48778;BME280;34578;0.000;0.000;2023-07-16T03:45:24;96770.34;;;22.38;59.02
48778;BME280;34578;0.000;0.000;2023-07-16T03:50:25;96789.09;;;22.37;59.22
48778;BME280;34578;0.000;0.000;2023-07-16T03:55:25;96791.47;;;22.49;59.36
48778;BME280;34578;0.000;0.000;2023-07-16T04:00:26;96806.78;;;22.51;59.19
48778;BME280;34578;0.000;0.000;2023-07-16T04:05:26;96815.38;;;22.45;59.45
48778;BME280;34578;0.000;0.000;2023-07-16T04:10:27;96825.63;;;22.41;59.41
48778;BME280;34578;0.000;0.000;2023-07-16T04:15:27;96823.13;;;22.36;59.32
48778;BME280;34578;0.000;0.000;2023-07-16T04:20:27;96841.84;;;22.34;59.29
48778;BME280;34578;0.000;0.000;2023-07-16T04:25:29;96831.72;;;22.29;58.84
48778;BME280;34578;0.000;0.000;2023-07-16T04:30:29;96841.88;;;22.32;59.33
48778;BME280;34578;0.000;0.000;2023-07-16T04:35:30;96842.56;;;22.46;59.01
48778;BME280;34578;0.000;0.000;2023-07-16T04:40:30;96837.41;;;22.51;58.97
48778;BME280;34578;0.000;0.000;2023-07-16T04:45:31;96840.06;;;22.43;59.24
48778;BME280;34578;0.000;0.000;2023-07-16T04:50:31;96821.44;;;22.35;59.34
48778;BME280;34578;0.000;0.000;2023-07-16T04:55:38;96820.56;;;22.36;59.20
48778;BME280;34578;0.000;0.000;2023-07-16T05:00:39;96828.28;;;22.32;59.05
48778;BME280;34578;0.000;0.000;2023-07-16T05:05:40;96826.53;;;22.35;59.50
48778;BME280;34578;0.000;0.000;2023-07-16T05:10:40;96832.53;;;22.33;59.29
48778;BME280;34578;0.000;0.000;2023-07-16T05:15:43;96843.44;;;22.45;59.27
48778;BME280;34578;0.000;0.000;2023-07-16T05:20:46;96847.59;;;22.52;59.03
48778;BME280;34578;0.000;0.000;2023-07-16T05:25:48;96852.78;;;22.45;59.22
48778;BME280;34578;0.000;0.000;2023-07-16T05:30:57;96843.47;;;22.39;59.39
48778;BME280;34578;0.000;0.000;2023-07-16T05:35:58;96809.56;;;22.34;59.21
48778;BME280;34578;0.000;0.000;2023-07-16T05:41:02;96819.78;;;22.31;59.66
48778;BME280;34578;0.000;0.000;2023-07-16T05:46:05;96843.47;;;22.39;60.88
48778;BME280;34578;0.000;0.000;2023-07-16T05:51:06;96863.97;;;22.33;60.31
48778;BME280;34578;0.000;0.000;2023-07-16T05:56:07;96854.72;;;22.26;60.27
48778;BME280;34578;0.000;0.000;2023-07-16T06:01:08;96857.22;;;22.29;60.72
48778;BME280;34578;0.000;0.000;2023-07-16T06:06:09;96855.59;;;22.22;61.43
48778;BME280;34578;0.000;0.000;2023-07-16T06:11:09;96864.13;;;22.21;61.99
48778;BME280;34578;0.000;0.000;2023-07-16T06:16:10;96853.13;;;22.16;61.42
48778;BME280;34578;0.000;0.000;2023-07-16T06:21:10;96848.84;;;22.20;61.97
48778;BME280;34578;0.000;0.000;2023-07-16T06:26:11;96847.25;;;22.11;62.16
48778;BME280;34578;0.000;0.000;2023-07-16T06:31:11;96859.19;;;22.06;62.16
48778;BME280;34578;0.000;0.000;2023-07-16T06:36:15;96864.34;;;22.03;62.06
48778;BME280;34578;0.000;0.000;2023-07-16T06:41:15;96883.78;;;22.12;60.24
48778;BME280;34578;0.000;0.000;2023-07-16T06:46:15;96885.47;;;22.14;60.41
48778;BME280;34578;0.000;0.000;2023-07-16T06:51:16;96877.81;;;22.14;60.60
48778;BME280;34578;0.000;0.000;2023-07-16T06:56:16;96872.72;;;22.14;60.39
48778;BME280;34578;0.000;0.000;2023-07-16T07:01:16;96860.88;;;22.10;60.27
48778;BME280;34578;0.000;0.000;2023-07-16T07:06:17;96860.59;;;22.31;61.11
48778;BME280;34578;0.000;0.000;2023-07-16T07:11:17;96864.75;;;22.41;60.94
48778;BME280;34578;0.000;0.000;2023-07-16T07:16:18;96884.34;;;22.36;59.77
48778;BME280;34578;0.000;0.000;2023-07-16T07:21:18;96882.72;;;22.29;60.14
48778;BME280;34578;0.000;0.000;2023-07-16T07:26:18;96870.03;;;22.25;60.01
48778;BME280;34578;0.000;0.000;2023-07-16T07:31:19;96849.69;;;22.22;59.96
48778;BME280;34578;0.000;0.000;2023-07-16T07:36:19;96854.81;;;22.19;60.01
48778;BME280;34578;0.000;0.000;2023-07-16T07:41:19;96853.94;;;22.21;60.16
48778;BME280;34578;0.000;0.000;2023-07-16T07:46:20;96863.88;;;22.39;60.23
48778;BME280;34578;0.000;0.000;2023-07-16T07:51:20;96859.56;;;22.46;59.76
48778;BME280;34578;0.000;0.000;2023-07-16T07:56:20;96856.28;;;22.36;59.91
48778;BME280;34578;0.000;0.000;2023-07-16T08:01:21;96869.09;;;22.30;59.80
48778;BME280;34578;0.000;0.000;2023-07-16T08:06:21;96872.59;;;22.26;59.78
48778;BME280;34578;0.000;0.000;2023-07-16T08:11:22;96877.69;;;22.23;59.51
48778;BME280;34578;0.000;0.000;2023-07-16T08:16:22;96870.91;;;22.22;59.65
48778;BME280;34578;0.000;0.000;2023-07-16T08:21:22;96869.16;;;22.26;60.52
48778;BME280;34578;0.000;0.000;2023-07-16T08:26:23;96863.03;;;22.43;59.93
48778;BME280;34578;0.000;0.000;2023-07-16T08:31:23;96851.97;;;22.44;59.39
48778;BME280;34578;0.000;0.000;2023-07-16T08:36:24;96869.88;;;22.37;59.90
48778;BME280;34578;0.000;0.000;2023-07-16T08:41:24;96873.41;;;22.28;59.60
48778;BME280;34578;0.000;0.000;2023-07-16T08:46:25;96873.44;;;22.25;59.54
48778;BME280;34578;0.000;0.000;2023-07-16T08:51:26;96871.78;;;22.23;59.48
48778;BME280;34578;0.000;0.000;2023-07-16T08:56:27;96870.91;;;22.22;59.38
48778;BME280;34578;0.000;0.000;2023-07-16T09:01:27;96880.19;;;22.28;60.44
48778;BME280;34578;0.000;0.000;2023-07-16T09:06:28;96884.28;;;22.44;59.90
48778;BME280;34578;0.000;0.000;2023-07-16T09:11:28;96871.44;;;22.48;59.28
48778;BME280;34578;0.000;0.000;2023-07-16T09:16:33;96869.03;;;22.36;59.66
48778;BME280;34578;0.000;0.000;2023-07-16T09:21:33;96867.38;;;22.32;59.73
48778;BME280;34578;0.000;0.000;2023-07-16T09:26:38;96881.03;;;22.28;59.58
48778;BME280;34578;0.000;0.000;2023-07-16T09:31:52;96874.28;;;22.24;59.54
48778;BME280;34578;0.000;0.000;2023-07-16T09:36:52;96864.94;;;22.23;59.43
48778;BME280;34578;0.000;0.000;2023-07-16T09:41:53;96881.03;;;22.30;60.34
48778;BME280;34578;0.000;0.000;2023-07-16T09:46:54;96891.06;;;22.46;59.94
48778;BME280;34578;0.000;0.000;2023-07-16T09:51:56;96882.47;;;22.50;59.26
48778;BME280;34578;0.000;0.000;2023-07-16T09:56:58;96891.13;;;22.37;59.67
48778;BME280;34578;0.000;0.000;2023-07-16T10:02:01;96887.78;;;22.32;59.60
48778;BME280;34578;0.000;0.000;2023-07-16T10:07:01;96875.09;;;22.28;59.61
48778;BME280;34578;0.000;0.000;2023-07-16T10:17:12;96886.22;;;22.24;59.38
48778;BME280;34578;0.000;0.000;2023-07-16T10:22:12;96885.28;;;22.28;60.57
48778;BME280;34578;0.000;0.000;2023-07-16T10:27:13;96886.81;;;22.45;59.78
48778;BME280;34578;0.000;0.000;2023-07-16T10:32:13;96885.91;;;22.49;59.19
48778;BME280;34578;0.000;0.000;2023-07-16T10:37:14;96879.19;;;22.39;59.57
48778;BME280;34578;0.000;0.000;2023-07-16T10:42:18;96876.75;;;22.32;59.65
48778;BME280;34578;0.000;0.000;2023-07-16T10:47:31;96880.19;;;22.29;59.46
48778;BME280;34578;0.000;0.000;2023-07-16T10:52:31;96874.25;;;22.27;59.47
48778;BME280;34578;0.000;0.000;2023-07-16T10:57:34;96874.28;;;22.24;59.28
48778;BME280;34578;0.000;0.000;2023-07-16T11:02:39;96870.03;;;22.26;60.22
48778;BME280;34578;0.000;0.000;2023-07-16T11:07:44;96853.69;;;22.42;59.81
48778;BME280;34578;0.000;0.000;2023-07-16T11:12:50;96861.22;;;22.51;59.56
48778;BME280;34578;0.000;0.000;2023-07-16T11:17:52;96850.25;;;22.40;59.71
48778;BME280;34578;0.000;0.000;2023-07-16T11:22:52;96857.16;;;22.34;59.71
48778;BME280;34578;0.000;0.000;2023-07-16T11:27:56;96847.03;;;22.29;59.50
48778;BME280;34578;0.000;0.000;2023-07-16T11:32:57;96863.19;;;22.28;59.37
48778;BME280;34578;0.000;0.000;2023-07-16T11:37:58;96862.38;;;22.26;59.42
48778;BME280;34578;0.000;0.000;2023-07-16T11:43:10;96850.50;;;22.24;59.30
48778;BME280;34578;0.000;0.000;2023-07-16T11:48:10;96863.91;;;22.42;59.93
48778;BME280;34578;0.000;0.000;2023-07-16T11:53:11;96855.25;;;22.52;59.57
48778;BME280;34578;0.000;0.000;2023-07-16T11:58:11;96847.72;;;22.43;59.71
48778;BME280;34578;0.000;0.000;2023-07-16T12:03:11;96851.19;;;22.36;59.81
48778;BME280;34578;0.000;0.000;2023-07-16T12:08:12;96852.06;;;22.32;59.64
48778;BME280;34578;0.000;0.000;2023-07-16T12:13:14;96835.13;;;22.28;59.65
48778;BME280;34578;0.000;0.000;2023-07-16T12:18:15;96827.53;;;22.24;59.59
48778;BME280;34578;0.000;0.000;2023-07-16T12:23:15;96822.44;;;22.24;59.43
48778;BME280;34578;0.000;0.000;2023-07-16T12:28:15;96815.47;;;22.36;59.91
48778;BME280;34578;0.000;0.000;2023-07-16T12:33:16;96820.41;;;22.51;60.18
48778;BME280;34578;0.000;0.000;2023-07-16T12:38:16;96819.56;;;22.49;59.38
48778;BME280;34578;0.000;0.000;2023-07-16T12:43:16;96802.72;;;22.36;59.78
48778;BME280;34578;0.000;0.000;2023-07-16T12:48:17;96803.59;;;22.32;59.50
48778;BME280;34578;0.000;0.000;2023-07-16T12:53:17;96799.47;;;22.25;59.43
48778;BME280;34578;0.000;0.000;2023-07-16T12:58:18;96817.28;;;22.27;59.41
48778;BME280;34578;0.000;0.000;2023-07-16T13:03:18;96814.78;;;22.25;59.44
48778;BME280;34578;0.000;0.000;2023-07-16T13:08:19;96810.50;;;22.27;60.33
48778;BME280;34578;0.000;0.000;2023-07-16T13:13:19;96814.50;;;22.46;60.06
48778;BME280;34578;0.000;0.000;2023-07-16T13:18:19;96804.25;;;22.49;59.41
48778;BME280;34578;0.000;0.000;2023-07-16T13:23:20;96802.66;;;22.42;59.76
48778;BME280;34578;0.000;0.000;2023-07-16T13:28:20;96808.69;;;22.35;59.69
48778;BME280;34578;0.000;0.000;2023-07-16T13:33:21;96801.91;;;22.31;59.45
48778;BME280;34578;0.000;0.000;2023-07-16T13:38:23;96800.25;;;22.29;59.44
48778;BME280;34578;0.000;0.000;2023-07-16T13:43:23;96786.72;;;22.24;59.48
48778;BME280;34578;0.000;0.000;2023-07-16T13:48:23;96790.97;;;22.26;59.73
48778;BME280;34578;0.000;0.000;2023-07-16T13:53:24;96794.97;;;22.44;60.62
48778;BME280;34578;0.000;0.000;2023-07-16T13:58:24;96783.69;;;22.58;60.73
48778;BME280;34578;0.000;0.000;2023-07-16T14:03:24;96787.31;;;22.98;55.94
48778;BME280;34578;0.000;0.000;2023-07-16T14:08:25;96783.38;;;22.79;55.81
48778;BME280;34578;0.000;0.000;2023-07-16T14:13:27;96781.88;;;22.66;57.32
48778;BME280;34578;0.000;0.000;2023-07-16T14:18:28;96779.59;;;22.50;58.01
48778;BME280;34578;0.000;0.000;2023-07-16T14:23:28;96770.34;;;22.38;57.66
48778;BME280;34578;0.000;0.000;2023-07-16T14:28:29;96762.31;;;22.65;53.99
48778;BME280;34578;0.000;0.000;2023-07-16T14:33:29;96763.03;;;22.73;53.21
48778;BME280;34578;0.000;0.000;2023-07-16T14:38:29;96763.09;;;22.70;54.81
48778;BME280;34578;0.000;0.000;2023-07-16T14:43:30;96756.53;;;22.54;55.48
48778;BME280;34578;0.000;0.000;2023-07-16T14:48:30;96753.78;;;22.68;53.47
48778;BME280;34578;0.000;0.000;2023-07-16T14:53:31;96763.03;;;22.75;52.61
48778;BME280;34578;0.000;0.000;2023-07-16T14:58:32;96759.97;;;22.53;52.74
48778;BME280;34578;0.000;0.000;2023-07-16T15:03:35;96765.81;;;22.60;53.99
48778;BME280;34578;0.000;0.000;2023-07-16T15:08:36;96750.25;;;22.76;52.79
48778;BME280;34578;0.000;0.000;2023-07-16T15:13:36;96759.13;;;23.04;51.98
48778;BME280;34578;0.000;0.000;2023-07-16T15:18:37;96755.63;;;23.08;51.66
48778;BME280;34578;0.000;0.000;2023-07-16T15:23:39;96753.44;;;22.89;52.00
48778;BME280;34578;0.000;0.000;2023-07-16T15:28:40;96766.69;;;23.10;51.13
48778;BME280;34578;0.000;0.000;2023-07-16T15:33:43;96763.44;;;22.99;51.26
48778;BME280;34578;0.000;0.000;2023-07-16T15:38:43;96750.25;;;23.26;49.37
48778;BME280;34578;0.000;0.000;2023-07-16T15:43:44;96764.69;;;23.27;49.00
48778;BME280;34578;0.000;0.000;2023-07-16T15:48:48;96759.28;;;22.95;51.97
48778;BME280;34578;0.000;0.000;2023-07-16T15:53:52;96759.13;;;23.03;51.76
48778;BME280;34578;0.000;0.000;2023-07-16T15:58:53;96759.28;;;22.94;52.83
48778;BME280;34578;0.000;0.000;2023-07-16T16:03:56;96755.06;;;22.93;53.58
48778;BME280;34578;0.000;0.000;2023-07-16T16:08:56;96748.88;;;23.06;51.89
48778;BME280;34578;0.000;0.000;2023-07-16T16:13:57;96754.00;;;23.04;51.13
48778;BME280;34578;0.000;0.000;2023-07-16T16:18:57;96754.81;;;23.08;51.80
48778;BME280;34578;0.000;0.000;2023-07-16T16:23:57;96750.03;;;22.88;53.45
48778;BME280;34578;0.000;0.000;2023-07-16T16:29:00;96752.34;;;23.03;52.40
48778;BME280;34578;0.000;0.000;2023-07-16T16:34:00;96752.59;;;22.87;53.23
48778;BME280;34578;0.000;0.000;2023-07-16T16:39:00;96748.84;;;23.07;52.49
48778;BME280;34578;0.000;0.000;2023-07-16T16:44:01;96747.94;;;23.10;52.38
48778;BME280;34578;0.000;0.000;2023-07-16T16:49:01;96728.09;;;22.78;53.87
48778;BME280;34578;0.000;0.000;2023-07-16T16:54:02;96750.09;;;22.84;53.80
48778;BME280;34578;0.000;0.000;2023-07-16T16:59:03;96747.41;;;22.91;51.98
48778;BME280;34578;0.000;0.000;2023-07-16T17:04:04;96738.03;;;22.93;51.98
48778;BME280;34578;0.000;0.000;2023-07-16T17:09:04;96742.94;;;23.04;50.97
48778;BME280;34578;0.000;0.000;2023-07-16T17:14:05;96738.13;;;22.87;52.84
48778;BME280;34578;0.000;0.000;2023-07-16T17:19:05;96748.50;;;22.78;54.35
48778;BME280;34578;0.000;0.000;2023-07-16T17:24:06;96748.41;;;22.84;53.21
48778;BME280;34578;0.000;0.000;2023-07-16T17:29:07;96750.66;;;23.01;50.71
48778;BME280;34578;0.000;0.000;2023-07-16T17:34:08;96752.13;;;23.17;48.43
48778;BME280;34578;0.000;0.000;2023-07-16T17:39:08;96753.06;;;23.10;48.74
48778;BME280;34578;0.000;0.000;2023-07-16T17:44:08;96756.16;;;22.78;52.40
48778;BME280;34578;0.000;0.000;2023-07-16T17:49:09;96761.56;;;22.60;55.01
48778;BME280;34578;0.000;0.000;2023-07-16T17:54:09;96767.56;;;22.56;55.34
48778;BME280;34578;0.000;0.000;2023-07-16T17:59:10;96765.72;;;22.67;54.45
48778;BME280;34578;0.000;0.000;2023-07-16T18:04:10;96752.75;;;22.79;54.60
48778;BME280;34578;0.000;0.000;2023-07-16T18:09:14;96762.22;;;22.71;54.85
48778;BME280;34578;0.000;0.000;2023-07-16T18:14:14;96778.56;;;22.61;55.88
48778;BME280;34578;0.000;0.000;2023-07-16T18:19:15;96770.97;;;22.55;56.08
48778;BME280;34578;0.000;0.000;2023-07-16T18:24:15;96778.69;;;22.52;56.26
48778;BME280;34578;0.000;0.000;2023-07-16T18:29:16;96773.38;;;22.67;55.56
48778;BME280;34578;0.000;0.000;2023-07-16T18:34:17;96780.00;;;22.77;55.53
48778;BME280;34578;0.000;0.000;2023-07-16T18:39:17;96780.16;;;22.68;55.70
48778;BME280;34578;0.000;0.000;2023-07-16T18:44:17;96779.47;;;22.57;56.30
48778;BME280;34578;0.000;0.000;2023-07-16T18:49:18;96777.00;;;22.51;56.67
48778;BME280;34578;0.000;0.000;2023-07-16T18:54:18;96781.31;;;22.48;56.87
48778;BME280;34578;0.000;0.000;2023-07-16T18:59:19;96791.25;;;22.66;56.23
48778;BME280;34578;0.000;0.000;2023-07-16T19:04:22;96781.72;;;22.75;56.17
48778;BME280;34578;0.000;0.000;2023-07-16T19:09:22;96785.28;;;22.67;56.41
48778;BME280;34578;0.000;0.000;2023-07-16T19:14:23;96787.13;;;22.57;56.63
48778;BME280;34578;0.000;0.000;2023-07-16T19:19:23;96788.13;;;22.47;56.88
48778;BME280;34578;0.000;0.000;2023-07-16T19:24:24;96804.31;;;22.46;57.02
48778;BME280;34578;0.000;0.000;2023-07-16T19:29:24;96806.63;;;22.61;56.91
48778;BME280;34578;0.000;0.000;2023-07-16T19:34:24;96806.44;;;22.73;56.65
48778;BME280;34578;0.000;0.000;2023-07-16T19:39:25;96817.56;;;22.69;56.56
48778;BME280;34578;0.000;0.000;2023-07-16T19:44:25;96832.22;;;22.55;57.02
48778;BME280;34578;0.000;0.000;2023-07-16T19:49:26;96825.53;;;22.48;57.14
48778;BME280;34578;0.000;0.000;2023-07-16T19:54:26;96832.38;;;22.46;57.17
48778;BME280;34578;0.000;0.000;2023-07-16T19:59:27;96839.13;;;22.49;57.45
48778;BME280;34578;0.000;0.000;2023-07-16T20:04:27;96856.66;;;22.71;57.04
48778;BME280;34578;0.000;0.000;2023-07-16T20:09:28;96847.34;;;22.70;56.70
48778;BME280;34578;0.000;0.000;2023-07-16T20:14:29;96858.53;;;22.60;57.01
48778;BME280;34578;0.000;0.000;2023-07-16T20:19:29;96860.34;;;22.52;57.14
48778;BME280;34578;0.000;0.000;2023-07-16T20:24:31;96866.34;;;22.48;57.22
48778;BME280;34578;0.000;0.000;2023-07-16T20:29:31;96873.25;;;22.43;57.41
48778;BME280;34578;0.000;0.000;2023-07-16T20:34:32;96875.56;;;22.58;56.32
48778;BME280;34578;0.000;0.000;2023-07-16T20:39:32;96880.50;;;22.70;55.60
48778;BME280;34578;0.000;0.000;2023-07-16T20:44:33;96877.22;;;22.62;55.96
48778;BME280;34578;0.000;0.000;2023-07-16T20:49:33;96886.69;;;22.54;56.47
48778;BME280;34578;0.000;0.000;2023-07-16T20:54:35;96892.72;;;22.47;56.98
48778;BME280;34578;0.000;0.000;2023-07-16T20:59:36;96900.44;;;22.44;57.32
48778;BME280;34578;0.000;0.000;2023-07-16T21:04:36;96900.47;;;22.41;57.15
48778;BME280;34578;0.000;0.000;2023-07-16T21:09:36;96906.19;;;22.58;55.97
48778;BME280;34578;0.000;0.000;2023-07-16T21:14:37;96921.41;;;22.67;55.35
48778;BME280;34578;0.000;0.000;2023-07-16T21:19:37;96912.97;;;22.61;55.68
48778;BME280;34578;0.000;0.000;2023-07-16T21:24:37;96918.19;;;22.53;56.22
48778;BME280;34578;0.000;0.000;2023-07-16T21:29:38;96923.31;;;22.50;56.49
48778;BME280;34578;0.000;0.000;2023-07-16T21:34:38;96915.75;;;22.43;56.75
48778;BME280;34578;0.000;0.000;2023-07-16T21:39:39;96922.53;;;22.47;56.07
48778;BME280;34578;0.000;0.000;2023-07-16T21:44:39;96921.56;;;22.55;55.47
48778;BME280;34578;0.000;0.000;2023-07-16T21:49:39;96919.00;;;22.57;55.08
48778;BME280;34578;0.000;0.000;2023-07-16T21:54:41;96926.59;;;22.58;55.19
48778;BME280;34578;0.000;0.000;2023-07-16T21:59:41;96923.31;;;22.50;56.05
48778;BME280;34578;0.000;0.000;2023-07-16T22:04:42;96920.81;;;22.46;56.30
48778;BME280;34578;0.000;0.000;2023-07-16T22:09:43;96935.28;;;22.45;55.41
48778;BME280;34578;0.000;0.000;2023-07-16T22:14:43;96922.53;;;22.44;56.05
48778;BME280;34578;0.000;0.000;2023-07-16T22:19:43;96931.75;;;22.55;55.08
48778;BME280;34578;0.000;0.000;2023-07-16T22:24:44;96931.69;;;22.61;54.56
48778;BME280;34578;0.000;0.000;2023-07-16T22:29:44;96935.19;;;22.54;54.70
48778;BME280;34578;0.000;0.000;2023-07-16T22:34:44;96930.13;;;22.51;54.91
48778;BME280;34578;0.000;0.000;2023-07-16T22:39:45;96942.94;;;22.47;55.24
48778;BME280;34578;0.000;0.000;2023-07-16T22:44:45;96934.44;;;22.45;55.33
48778;BME280;34578;0.000;0.000;2023-07-16T22:49:49;96938.72;;;22.43;54.73
48778;BME280;34578;0.000;0.000;2023-07-16T22:54:50;96932.69;;;22.50;55.02
48778;BME280;34578;0.000;0.000;2023-07-16T22:59:50;96928.38;;;22.53;54.19
48778;BME280;34578;0.000;0.000;2023-07-16T23:04:50;96929.31;;;22.48;54.52
48778;BME280;34578;0.000;0.000;2023-07-16T23:09:51;96949.75;;;22.45;54.30
48778;BME280;34578;0.000;0.000;2023-07-16T23:14:51;96942.97;;;22.44;54.46
48778;BME280;34578;0.000;0.000;2023-07-16T23:19:53;96937.00;;;22.40;54.83
48778;BME280;34578;0.000;0.000;2023-07-16T23:24:53;96937.91;;;22.41;55.36
48778;BME280;34578;0.000;0.000;2023-07-16T23:29:53;96953.22;;;22.41;54.66
48778;BME280;34578;0.000;0.000;2023-07-16T23:34:54;96957.34;;;22.49;54.16
48778;BME280;34578;0.000;0.000;2023-07-16T23:39:55;96945.44;;;22.48;54.40
48778;BME280;34578;0.000;0.000;2023-07-16T23:44:55;96938.72;;;22.41;54.51
48778;BME280;34578;0.000;0.000;2023-07-16T23:49:56;96940.44;;;22.42;54.30
48778;BME280;34578;0.000;0.000;2023-07-16T23:54:56;96940.44;;;22.39;54.90
48778;BME280;34578;0.000;0.000;2023-07-16T23:59:56;96936.25;;;22.35;54.64
